Time;durP1;ratioP1;P1;durP2;ratioP2;P2;SDS_P1;SDS_P2;PMS_P1;PMS_P2;Temp;Humidity;BMP_temperature;BMP_pressure;BME280_temperature;BME280_humidity;BME280_pressure;Samples;Min_cycle;Max_cycle;Signal;HPM_P1;HPM_P2
2022/09/27 00:00:45;;;;;;;3.53;1.87;;;;;;;;;;5005897;28;20201;-55
2022/09/27 00:03:12;;;;;;;3.13;1.87;;;;;;;;;;4996348;28;20187;-54
2022/09/27 00:05:38;;;;;;;3.50;1.60;;;;;;;;;;4998464;28;20709;-54
2022/09/27 00:08:08;;;;;;;4.13;1.87;;;;;;;;;;5004256;28;20174;-54
2022/09/27 00:10:34;;;;;;;2.03;1.50;;;;;;;;;;4982465;28;20291;-54
2022/09/27 00:13:00;;;;;;;1.70;1.60;;;;;;;;;;5004625;28;20665;-54
2022/09/27 00:15:26;;;;;;;3.83;1.73;;;;;;;;;;4981208;28;20269;-54
2022/09/27 00:17:52;;;;;;;3.47;1.50;;;;;;;;;;5002140;28;20570;-54
2022/09/27 00:20:20;;;;;;;4.83;2.07;;;;;;;;;;4977014;28;20233;-54
2022/09/27 00:22:47;;;;;;;3.77;1.67;;;;;;;;;;4999028;28;20665;-54
2022/09/27 00:25:13;;;;;;;3.17;1.70;;;;;;;;;;4970789;28;20194;-54
2022/09/27 00:27:39;;;;;;;3.80;1.73;;;;;;;;;;4995761;28;20242;-54
2022/09/27 00:30:05;;;;;;;2.23;1.63;;;;;;;;;;4990029;28;20537;-54
2022/09/27 00:32:31;;;;;;;3.27;1.50;;;;;;;;;;4995410;28;20202;-54
2022/09/27 00:34:58;;;;;;;2.53;1.60;;;;;;;;;;4998566;28;20186;-54
2022/09/27 00:37:24;;;;;;;3.07;1.80;;;;;;;;;;4990168;28;20210;-54
2022/09/27 00:39:51;;;;;;;3.27;1.73;;;;;;;;;;4998691;28;20178;-54
2022/09/27 00:42:17;;;;;;;4.00;1.77;;;;;;;;;;4986728;28;20191;-54
2022/09/27 00:44:53;;;;;;;3.40;1.90;;;;;;;;;;4992538;28;20201;-54
2022/09/27 00:47:55;;;;;;;5.50;2.20;;;;;;;;;;5000677;28;20727;-54
2022/09/27 00:50:24;;;;;;;2.47;1.87;;;;;;;;;;4960485;28;20208;-54
2022/09/27 00:53:02;;;;;;;2.73;1.80;;;;;;;;;;4978690;28;20420;-54
2022/09/27 00:55:30;;;;;;;4.47;2.30;;;;;;;;;;4985437;28;20366;-54
2022/09/27 00:57:56;;;;;;;4.00;2.30;;;;;;;;;;4992559;28;20174;-54
2022/09/27 01:00:22;;;;;;;4.73;2.00;;;;;;;;;;4989934;28;20546;-53
2022/09/27 01:02:50;;;;;;;3.57;2.20;;;;;;;;;;4989282;28;20187;-54
2022/09/27 01:05:19;;;;;;;2.93;2.40;;;;;;;;;;5003537;28;20206;-54
2022/09/27 01:07:45;;;;;;;4.97;2.53;;;;;;;;;;4994976;28;20181;-54
2022/09/27 01:10:12;;;;;;;3.50;2.57;;;;;;;;;;5004897;28;20669;-53
2022/09/27 01:12:53;;;;;;;5.50;2.40;;;;;;;;;;4985887;28;20179;-54
2022/09/27 01:15:29;;;;;;;4.93;2.40;;;;;;;;;;5000479;28;20208;-53
2022/09/27 01:18:16;;;;;;;4.40;2.67;;;;;;;;;;4998010;28;20523;-54
2022/09/27 01:20:51;;;;;;;4.70;2.40;;;;;;;;;;4998751;28;20654;-53
2022/09/27 01:23:24;;;;;;;2.87;2.50;;;;;;;;;;4987284;28;20182;-54
2022/09/27 01:25:56;;;;;;;2.47;2.27;;;;;;;;;;5005196;28;20253;-53
2022/09/27 01:28:40;;;;;;;3.23;2.40;;;;;;;;;;4993117;28;20250;-53
2022/09/27 01:31:13;;;;;;;3.67;2.47;;;;;;;;;;4988240;28;21600;-54
2022/09/27 01:33:45;;;;;;;6.53;2.27;;;;;;;;;;4987961;28;20583;-54
2022/09/27 01:36:17;;;;;;;7.57;2.73;;;;;;;;;;4982771;28;20179;-54
2022/09/27 01:39:03;;;;;;;4.47;2.30;;;;;;;;;;5003864;28;20272;-53
2022/09/27 01:41:36;;;;;;;4.17;2.20;;;;;;;;;;4973102;28;20198;-53
2022/09/27 01:44:04;;;;;;;5.87;2.60;;;;;;;;;;4984425;28;20559;-54
2022/09/27 01:46:35;;;;;;;5.57;2.40;;;;;;;;;;4977946;28;20563;-54
2022/09/27 01:49:03;;;;;;;3.77;2.20;;;;;;;;;;4982374;28;20186;-54
2022/09/27 01:51:35;;;;;;;2.73;2.10;;;;;;;;;;4997605;28;20186;-53
2022/09/27 01:54:02;;;;;;;5.40;2.60;;;;;;;;;;5005214;28;20178;-53
2022/09/27 01:56:48;;;;;;;2.70;2.07;;;;;;;;;;4991771;28;20276;-53
2022/09/27 01:59:20;;;;;;;2.23;1.90;;;;;;;;;;5004988;28;20544;-54
2022/09/27 02:01:48;;;;;;;2.63;2.40;;;;;;;;;;4987683;28;20175;-54
2022/09/27 02:04:17;;;;;;;2.87;2.57;;;;;;;;;;4997403;28;20534;-54
2022/09/27 02:06:45;;;;;;;4.97;2.90;;;;;;;;;;5001165;28;20742;-54
2022/09/27 02:09:16;;;;;;;4.17;2.50;;;;;;;;;;5006883;28;20221;-54
2022/09/27 02:11:45;;;;;;;2.57;2.37;;;;;;;;;;5003207;28;20186;-54
2022/09/27 02:14:15;;;;;;;6.10;2.80;;;;;;;;;;5006844;28;20529;-54
2022/09/27 02:16:49;;;;;;;2.17;2.03;;;;;;;;;;4975360;28;20253;-54
2022/09/27 02:19:27;;;;;;;3.17;2.80;;;;;;;;;;4995688;28;20274;-54
2022/09/27 02:21:57;;;;;;;3.13;2.47;;;;;;;;;;4991239;28;20585;-54
2022/09/27 02:24:33;;;;;;;3.00;2.70;;;;;;;;;;5007043;28;20175;-53
2022/09/27 02:27:06;;;;;;;2.70;2.37;;;;;;;;;;5002436;28;20703;-54
2022/09/27 02:29:38;;;;;;;2.63;2.43;;;;;;;;;;5007658;28;20217;-54
2022/09/27 02:32:04;;;;;;;3.57;2.70;;;;;;;;;;4995026;28;20705;-54
2022/09/27 02:34:33;;;;;;;2.67;2.47;;;;;;;;;;4997142;28;20178;-53
2022/09/27 02:36:59;;;;;;;2.50;2.30;;;;;;;;;;4987975;28;20203;-54
2022/09/27 02:39:26;;;;;;;4.93;2.47;;;;;;;;;;4992054;28;20171;-54
2022/09/27 02:41:52;;;;;;;2.93;2.73;;;;;;;;;;4997024;28;20197;-54
2022/09/27 02:44:20;;;;;;;3.97;2.53;;;;;;;;;;5003723;28;20764;-54
2022/09/27 02:47:04;;;;;;;6.00;2.63;;;;;;;;;;4999816;28;20202;-54
2022/09/27 02:49:36;;;;;;;4.03;2.40;;;;;;;;;;5005936;28;20174;-54
2022/09/27 02:52:14;;;;;;;5.43;2.90;;;;;;;;;;4998473;28;20700;-54
2022/09/27 02:54:59;;;;;;;6.07;2.80;;;;;;;;;;5007407;28;20178;-53
2022/09/27 02:57:25;;;;;;;4.03;2.60;;;;;;;;;;4996539;28;20177;-53
2022/09/27 03:00:13;;;;;;;4.70;2.70;;;;;;;;;;5010672;28;20671;-53
2022/09/27 03:02:55;;;;;;;3.97;2.90;;;;;;;;;;5000556;28;20201;-53
2022/09/27 03:05:24;;;;;;;2.67;2.40;;;;;;;;;;5003612;28;20678;-53
2022/09/27 03:07:50;;;;;;;5.40;3.43;;;;;;;;;;4996590;28;20540;-53
2022/09/27 03:10:20;;;;;;;3.30;2.50;;;;;;;;;;4999761;28;20178;-53
2022/09/27 03:12:46;;;;;;;3.97;2.97;;;;;;;;;;4994892;28;20593;-53
2022/09/27 03:15:13;;;;;;;6.03;3.23;;;;;;;;;;5000097;28;20185;-53
2022/09/27 03:17:39;;;;;;;4.37;3.20;;;;;;;;;;4999628;28;20693;-53
2022/09/27 03:20:05;;;;;;;4.10;2.80;;;;;;;;;;4998869;28;20179;-53
2022/09/27 03:22:32;;;;;;;3.40;2.87;;;;;;;;;;5004240;28;20185;-53
2022/09/27 03:24:58;;;;;;;3.53;2.43;;;;;;;;;;4993287;28;20210;-53
2022/09/27 03:27:24;;;;;;;3.40;2.10;;;;;;;;;;4990116;28;20171;-53
2022/09/27 03:29:50;;;;;;;3.50;2.60;;;;;;;;;;4998919;28;20561;-53
2022/09/27 03:32:17;;;;;;;3.00;2.00;;;;;;;;;;5007499;28;20182;-53
2022/09/27 03:34:43;;;;;;;2.93;2.20;;;;;;;;;;4985300;28;20182;-53
2022/09/27 03:37:12;;;;;;;3.20;2.23;;;;;;;;;;5000807;28;20194;-54
2022/09/27 03:39:41;;;;;;;3.93;2.37;;;;;;;;;;5007927;28;20720;-54
2022/09/27 03:42:07;;;;;;;2.17;1.70;;;;;;;;;;4979281;28;20338;-54
2022/09/27 03:44:33;;;;;;;4.30;2.33;;;;;;;;;;4979359;28;20174;-53
2022/09/27 03:47:00;;;;;;;2.47;2.00;;;;;;;;;;4992302;28;20195;-53
2022/09/27 03:49:26;;;;;;;1.83;1.73;;;;;;;;;;5009624;28;20645;-53
2022/09/27 03:51:52;;;;;;;3.23;1.90;;;;;;;;;;5007750;28;20182;-53
2022/09/27 03:54:18;;;;;;;2.40;1.90;;;;;;;;;;4997548;28;20242;-54
2022/09/27 03:56:44;;;;;;;3.20;2.03;;;;;;;;;;4994220;28;20175;-53
2022/09/27 03:59:18;;;;;;;2.87;1.90;;;;;;;;;;4990584;28;20273;-54
2022/09/27 04:01:44;;;;;;;2.90;1.90;;;;;;;;;;4993517;28;20179;-53
2022/09/27 04:04:10;;;;;;;3.47;1.93;;;;;;;;;;4992433;28;20179;-53
2022/09/27 04:06:36;;;;;;;3.73;2.20;;;;;;;;;;5003267;28;20192;-54
2022/09/27 04:09:05;;;;;;;4.17;2.17;;;;;;;;;;5006595;28;20179;-53
2022/09/27 04:11:31;;;;;;;4.20;2.33;;;;;;;;;;5001338;28;20208;-54
2022/09/27 04:13:57;;;;;;;5.07;2.33;;;;;;;;;;4992308;28;20195;-54
2022/09/27 04:16:24;;;;;;;3.77;2.20;;;;;;;;;;4998144;28;20350;-54
2022/09/27 04:18:50;;;;;;;2.77;2.30;;;;;;;;;;4993880;28;20233;-54
2022/09/27 04:21:16;;;;;;;5.57;3.63;;;;;;;;;;4997259;28;20182;-54
2022/09/27 04:23:42;;;;;;;3.57;2.00;;;;;;;;;;5003585;28;20196;-54
2022/09/27 04:26:08;;;;;;;6.43;2.50;;;;;;;;;;5007489;28;20258;-54
2022/09/27 04:28:34;;;;;;;3.30;2.30;;;;;;;;;;5003451;28;20299;-53
2022/09/27 04:31:01;;;;;;;3.30;2.27;;;;;;;;;;4993506;28;20179;-54
2022/09/27 04:33:27;;;;;;;2.53;2.03;;;;;;;;;;5005322;28;20190;-54
2022/09/27 04:38:38;;;;;;;4.47;2.63;;;;;;;;;;4983195;28;21016;-54
2022/09/27 04:41:05;;;;;;;3.70;2.30;;;;;;;;;;4966568;28;20668;-54
2022/09/27 04:43:31;;;;;;;5.07;3.00;;;;;;;;;;4994290;28;20175;-54
2022/09/27 04:45:57;;;;;;;3.87;2.40;;;;;;;;;;4994491;28;20749;-54
2022/09/27 04:48:23;;;;;;;3.63;2.37;;;;;;;;;;4993867;28;20654;-54
2022/09/27 04:51:01;;;;;;;6.00;2.60;;;;;;;;;;4991059;28;20634;-54
2022/09/27 04:53:30;;;;;;;6.50;3.13;;;;;;;;;;4984573;28;20167;-53
2022/09/27 04:55:56;;;;;;;3.77;2.50;;;;;;;;;;4990099;28;20217;-54
2022/09/27 04:58:23;;;;;;;2.60;2.40;;;;;;;;;;4984157;28;20934;-54
2022/09/27 05:00:53;;;;;;;3.43;3.13;;;;;;;;;;4976729;28;20187;-54
2022/09/27 05:03:19;;;;;;;3.03;2.20;;;;;;;;;;4979271;28;20318;-54
2022/09/27 05:05:45;;;;;;;4.57;2.57;;;;;;;;;;4991223;28;20664;-54
2022/09/27 05:08:11;;;;;;;4.90;3.00;;;;;;;;;;5003455;28;20183;-54
2022/09/27 05:10:37;;;;;;;3.33;2.10;;;;;;;;;;4988362;28;20179;-54
2022/09/27 05:13:03;;;;;;;3.50;2.70;;;;;;;;;;4997460;28;20653;-54
2022/09/27 05:15:30;;;;;;;4.30;2.50;;;;;;;;;;4988957;28;20210;-54
2022/09/27 05:18:02;;;;;;;4.27;1.97;;;;;;;;;;4966767;28;20651;-53
2022/09/27 05:20:28;;;;;;;4.90;2.20;;;;;;;;;;4981891;28;20713;-54
2022/09/27 05:22:55;;;;;;;3.80;2.60;;;;;;;;;;4982996;28;20634;-55
2022/09/27 05:25:22;;;;;;;4.90;2.73;;;;;;;;;;4991350;28;20273;-54
2022/09/27 05:27:56;;;;;;;5.00;2.87;;;;;;;;;;4981669;28;20665;-54
2022/09/27 05:30:29;;;;;;;5.97;2.50;;;;;;;;;;4979021;28;20223;-53
2022/09/27 05:32:55;;;;;;;5.87;2.77;;;;;;;;;;4982195;28;20634;-54
2022/09/27 05:35:22;;;;;;;8.40;2.50;;;;;;;;;;4987840;28;20181;-54
2022/09/27 05:37:52;;;;;;;3.37;2.20;;;;;;;;;;4981384;28;20207;-53
2022/09/27 05:40:18;;;;;;;3.33;2.33;;;;;;;;;;4985201;28;20274;-56
2022/09/27 05:42:44;;;;;;;3.77;2.20;;;;;;;;;;4988371;28;20179;-54
2022/09/27 05:45:10;;;;;;;2.80;2.03;;;;;;;;;;4986756;28;20606;-53
2022/09/27 05:47:36;;;;;;;3.37;2.33;;;;;;;;;;4999346;28;20668;-53
2022/09/27 05:50:02;;;;;;;4.83;2.30;;;;;;;;;;4985886;28;20192;-54
2022/09/27 05:52:28;;;;;;;3.47;2.13;;;;;;;;;;4988749;28;20178;-54
2022/09/27 05:54:55;;;;;;;6.67;2.43;;;;;;;;;;4986932;28;20168;-54
2022/09/27 05:57:21;;;;;;;5.63;2.20;;;;;;;;;;4987323;28;20237;-54
2022/09/27 05:59:47;;;;;;;3.47;2.40;;;;;;;;;;4987362;28;20685;-54
2022/09/27 06:02:13;;;;;;;3.10;2.00;;;;;;;;;;5002662;28;20994;-54
2022/09/27 06:04:39;;;;;;;2.60;1.90;;;;;;;;;;5007643;28;20175;-54
2022/09/27 06:07:05;;;;;;;2.70;2.23;;;;;;;;;;5005810;28;20264;-54
2022/09/27 06:09:32;;;;;;;6.03;2.83;;;;;;;;;;4994361;28;20167;-54
2022/09/27 06:11:58;;;;;;;3.77;1.90;;;;;;;;;;5000027;28;20182;-54
2022/09/27 06:14:24;;;;;;;3.53;1.90;;;;;;;;;;4982564;28;20179;-54
2022/09/27 06:16:50;;;;;;;2.07;1.70;;;;;;;;;;4986195;28;20634;-53
2022/09/27 06:19:16;;;;;;;2.00;1.63;;;;;;;;;;4991191;28;20607;-54
2022/09/27 06:21:42;;;;;;;2.47;1.67;;;;;;;;;;5001333;28;20563;-54
2022/09/27 06:24:11;;;;;;;3.97;1.53;;;;;;;;;;4989166;28;20266;-53
2022/09/27 06:26:38;;;;;;;3.60;1.90;;;;;;;;;;4988029;28;20209;-54
2022/09/27 06:29:11;;;;;;;2.00;1.63;;;;;;;;;;4992799;28;20708;-54
2022/09/27 06:31:39;;;;;;;5.37;1.97;;;;;;;;;;4989798;28;20363;-54
2022/09/27 06:34:07;;;;;;;3.70;1.83;;;;;;;;;;4990139;28;20171;-54
2022/09/27 06:36:34;;;;;;;4.63;2.13;;;;;;;;;;4989569;28;20262;-53
2022/09/27 06:39:00;;;;;;;3.70;1.87;;;;;;;;;;4991141;28;20186;-54
2022/09/27 06:41:26;;;;;;;3.77;1.50;;;;;;;;;;4990868;28;20640;-54
2022/09/27 06:43:53;;;;;;;2.53;1.80;;;;;;;;;;4990728;28;20191;-54
2022/09/27 06:46:19;;;;;;;4.27;1.70;;;;;;;;;;4989887;28;20647;-53
2022/09/27 06:48:46;;;;;;;2.00;1.67;;;;;;;;;;4989197;28;20184;-53
2022/09/27 06:51:13;;;;;;;3.37;1.60;;;;;;;;;;4996845;28;20637;-53
2022/09/27 06:53:39;;;;;;;2.23;1.63;;;;;;;;;;5007866;28;20174;-56
2022/09/27 06:56:05;;;;;;;4.07;1.47;;;;;;;;;;5003248;28;20233;-53
2022/09/27 07:01:16;;;;;;;3.43;1.50;;;;;;;;;;4997290;28;20189;-53
2022/09/27 07:03:43;;;;;;;1.70;1.50;;;;;;;;;;5001746;28;20724;-54
2022/09/27 07:06:17;;;;;;;1.40;1.30;;;;;;;;;;5007001;28;20241;-53
2022/09/27 07:08:43;;;;;;;3.60;1.60;;;;;;;;;;5008332;28;20186;-53
2022/09/27 07:11:09;;;;;;;1.57;1.40;;;;;;;;;;5007335;28;20269;-54
2022/09/27 07:13:39;;;;;;;2.37;1.73;;;;;;;;;;5007049;28;20232;-54
2022/09/27 07:16:06;;;;;;;2.40;1.60;;;;;;;;;;5001947;28;20187;-54
2022/09/27 07:18:32;;;;;;;2.13;1.93;;;;;;;;;;5005719;28;20178;-54
2022/09/27 07:21:00;;;;;;;3.40;1.60;;;;;;;;;;4985870;28;20548;-53
2022/09/27 07:23:26;;;;;;;3.10;2.53;;;;;;;;;;5007205;28;20166;-53
2022/09/27 07:25:53;;;;;;;4.77;3.83;;;;;;;;;;5002245;28;20210;-54
2022/09/27 07:28:19;;;;;;;5.77;4.03;;;;;;;;;;4992201;28;20270;-54
2022/09/27 07:30:46;;;;;;;6.83;5.07;;;;;;;;;;4972376;28;20663;-54
2022/09/27 07:33:12;;;;;;;8.27;4.57;;;;;;;;;;4988382;28;20164;-54
2022/09/27 07:35:39;;;;;;;4.90;4.33;;;;;;;;;;5007301;28;20171;-53
2022/09/27 07:38:07;;;;;;;5.20;3.53;;;;;;;;;;5001534;28;20190;-54
2022/09/27 07:40:35;;;;;;;5.33;3.73;;;;;;;;;;4988061;28;20205;-54
2022/09/27 07:43:01;;;;;;;5.73;3.97;;;;;;;;;;4987964;28;20175;-53
2022/09/27 07:45:28;;;;;;;5.67;3.30;;;;;;;;;;4988525;28;20210;-54
2022/09/27 07:47:56;;;;;;;5.67;3.40;;;;;;;;;;4996270;28;20182;-53
2022/09/27 07:50:22;;;;;;;5.13;4.00;;;;;;;;;;5007594;28;20637;-54
2022/09/27 07:52:50;;;;;;;3.97;3.17;;;;;;;;;;4980812;28;20621;-54
2022/09/27 07:55:16;;;;;;;6.97;3.40;;;;;;;;;;5002279;28;20279;-54
2022/09/27 07:57:45;;;;;;;4.17;3.00;;;;;;;;;;5002583;28;20641;-54
2022/09/27 08:00:13;;;;;;;5.90;3.00;;;;;;;;;;5003881;28;20186;-54
2022/09/27 08:02:40;;;;;;;6.07;2.97;;;;;;;;;;4988744;28;20175;-54
2022/09/27 08:05:07;;;;;;;5.47;2.90;;;;;;;;;;4995294;28;20182;-53
2022/09/27 08:07:33;;;;;;;3.07;2.77;;;;;;;;;;4989331;28;20183;-54
2022/09/27 08:10:01;;;;;;;5.67;3.00;;;;;;;;;;4989656;28;20591;-54
2022/09/27 08:12:27;;;;;;;3.90;3.37;;;;;;;;;;4991430;28;20202;-53
2022/09/27 08:14:57;;;;;;;3.67;2.97;;;;;;;;;;4988944;28;20206;-57
2022/09/27 08:17:26;;;;;;;4.57;3.10;;;;;;;;;;4988059;28;20202;-54
2022/09/27 08:19:53;;;;;;;3.33;3.03;;;;;;;;;;4992581;28;20175;-54
2022/09/27 08:22:20;;;;;;;4.00;2.20;;;;;;;;;;4989541;28;20183;-54
2022/09/27 08:24:46;;;;;;;3.37;2.10;;;;;;;;;;4989351;28;20182;-54
2022/09/27 08:27:12;;;;;;;2.60;1.70;;;;;;;;;;5004855;28;20287;-54
2022/09/27 08:29:40;;;;;;;2.20;1.70;;;;;;;;;;4997564;28;20223;-54
2022/09/27 08:32:07;;;;;;;2.47;1.60;;;;;;;;;;4993221;28;20186;-54
2022/09/27 08:34:35;;;;;;;3.57;2.00;;;;;;;;;;4988863;28;20254;-54
2022/09/27 08:37:02;;;;;;;3.13;1.93;;;;;;;;;;4991700;28;20575;-53
2022/09/27 08:39:28;;;;;;;3.70;2.53;;;;;;;;;;4984204;28;20180;-53
2022/09/27 08:42:00;;;;;;;3.63;2.50;;;;;;;;;;4987166;28;20289;-53
2022/09/27 08:44:31;;;;;;;3.77;2.30;;;;;;;;;;4995145;28;20555;-53
2022/09/27 08:47:01;;;;;;;3.33;2.87;;;;;;;;;;4990036;28;20207;-54
2022/09/27 08:49:33;;;;;;;4.70;2.73;;;;;;;;;;4992894;28;20209;-54
2022/09/27 08:52:00;;;;;;;3.87;2.40;;;;;;;;;;4999302;28;20178;-54
2022/09/27 08:54:29;;;;;;;4.47;3.20;;;;;;;;;;4989098;28;20270;-54
2022/09/27 08:57:04;;;;;;;4.57;3.37;;;;;;;;;;4995552;28;20310;-53
2022/09/27 08:59:48;;;;;;;4.53;2.40;;;;;;;;;;4999341;28;20197;-54
2022/09/27 09:02:19;;;;;;;4.83;3.40;;;;;;;;;;4980250;28;20288;-54
2022/09/27 09:04:46;;;;;;;3.87;3.23;;;;;;;;;;4988363;28;20541;-53
2022/09/27 09:07:20;;;;;;;5.00;3.13;;;;;;;;;;4987290;28;20206;-53
2022/09/27 09:10:04;;;;;;;4.43;2.70;;;;;;;;;;4988322;28;20203;-53
2022/09/27 09:12:52;;;;;;;4.23;2.30;;;;;;;;;;4986765;28;20245;-54
2022/09/27 09:15:18;;;;;;;3.13;2.50;;;;;;;;;;4985693;28;20270;-53
2022/09/27 09:17:57;;;;;;;3.67;2.67;;;;;;;;;;4988836;28;20199;-53
2022/09/27 09:20:42;;;;;;;4.80;3.23;;;;;;;;;;4986820;28;20536;-54
2022/09/27 09:23:15;;;;;;;2.70;2.37;;;;;;;;;;4988017;28;20179;-54
2022/09/27 09:25:41;;;;;;;2.60;2.40;;;;;;;;;;4987210;28;20677;-54
2022/09/27 09:28:20;;;;;;;3.23;2.43;;;;;;;;;;5001445;28;20250;-54
2022/09/27 09:30:55;;;;;;;5.27;3.50;;;;;;;;;;4995474;28;20230;-54
2022/09/27 09:33:35;;;;;;;4.50;3.33;;;;;;;;;;4986099;28;20202;-53
2022/09/27 09:36:05;;;;;;;5.33;3.80;;;;;;;;;;4988291;28;20185;-57
2022/09/27 09:38:37;;;;;;;4.53;2.10;;;;;;;;;;4987688;28;20669;-55
2022/09/27 09:41:06;;;;;;;3.17;2.13;;;;;;;;;;4998116;28;20222;-54
2022/09/27 09:43:32;;;;;;;5.13;2.57;;;;;;;;;;5006363;28;20652;-55
2022/09/27 09:46:06;;;;;;;2.47;2.23;;;;;;;;;;4989857;28;20708;-55
2022/09/27 09:48:38;;;;;;;2.87;2.27;;;;;;;;;;5004731;28;20212;-54
2022/09/27 09:51:06;;;;;;;3.20;2.40;;;;;;;;;;4992496;28;20212;-55
2022/09/27 09:53:32;;;;;;;2.47;2.27;;;;;;;;;;5008925;28;20182;-55
2022/09/27 09:56:04;;;;;;;5.67;3.00;;;;;;;;;;5005028;28;20257;-55
2022/09/27 09:58:47;;;;;;;4.57;2.93;;;;;;;;;;4993898;28;20270;-54
2022/09/27 10:01:18;;;;;;;3.63;2.80;;;;;;;;;;4985132;28;20581;-55
2022/09/27 10:03:44;;;;;;;5.93;2.97;;;;;;;;;;4979692;28;20199;-54
2022/09/27 10:06:11;;;;;;;3.70;3.20;;;;;;;;;;5003332;28;20206;-54
2022/09/27 10:08:38;;;;;;;3.20;2.67;;;;;;;;;;5010506;28;20245;-54
2022/09/27 10:11:04;;;;;;;3.20;2.90;;;;;;;;;;4996566;28;20175;-55
2022/09/27 10:13:33;;;;;;;5.20;2.90;;;;;;;;;;5011003;28;20171;-55
2022/09/27 10:16:08;;;;;;;4.57;3.60;;;;;;;;;;4996197;28;20274;-55
2022/09/27 10:18:40;;;;;;;5.10;4.07;;;;;;;;;;4976874;28;20187;-54
2022/09/27 10:21:07;;;;;;;4.23;3.70;;;;;;;;;;4995967;28;20537;-54
2022/09/27 10:23:33;;;;;;;8.37;3.80;;;;;;;;;;5010820;28;20261;-54
2022/09/27 10:26:04;;;;;;;3.83;3.53;;;;;;;;;;5006174;28;20562;-54
2022/09/27 10:28:38;;;;;;;2.80;2.40;;;;;;;;;;4990068;28;20669;-55
2022/09/27 10:31:09;;;;;;;6.10;2.07;;;;;;;;;;5002482;28;20261;-54
2022/09/27 10:33:42;;;;;;;2.40;2.10;;;;;;;;;;4997121;28;20182;-54
2022/09/27 10:36:21;;;;;;;3.53;1.90;;;;;;;;;;4996859;28;20604;-55
2022/09/27 10:38:52;;;;;;;2.83;2.40;;;;;;;;;;4986277;28;20622;-54
2022/09/27 10:41:24;;;;;;;3.70;2.33;;;;;;;;;;4985730;28;20659;-55
2022/09/27 10:43:57;;;;;;;3.17;2.63;;;;;;;;;;4964271;28;20433;-55
2022/09/27 10:46:23;;;;;;;2.33;2.13;;;;;;;;;;4972507;28;20211;-56
2022/09/27 10:49:07;;;;;;;2.30;2.00;;;;;;;;;;4978895;28;20235;-55
2022/09/27 10:51:33;;;;;;;3.90;3.60;;;;;;;;;;4988168;28;20179;-55
2022/09/27 10:54:00;;;;;;;4.53;3.07;;;;;;;;;;4990284;28;20171;-55
2022/09/27 10:56:31;;;;;;;3.23;2.93;;;;;;;;;;4973225;28;20739;-55
2022/09/27 10:58:58;;;;;;;8.47;3.03;;;;;;;;;;4989062;28;20186;-55
2022/09/27 11:01:25;;;;;;;2.60;2.10;;;;;;;;;;4988372;28;20186;-60
2022/09/27 11:03:54;;;;;;;3.00;2.30;;;;;;;;;;4990225;28;20605;-55
2022/09/27 11:06:23;;;;;;;3.63;2.37;;;;;;;;;;4985238;28;20211;-56
2022/09/27 11:08:51;;;;;;;3.90;2.40;;;;;;;;;;4982876;28;20170;-55
2022/09/27 11:11:24;;;;;;;3.27;2.60;;;;;;;;;;4985531;28;20234;-56
2022/09/27 11:14:04;;;;;;;5.77;2.87;;;;;;;;;;4979528;28;20179;-56
2022/09/27 11:16:38;;;;;;;3.97;3.00;;;;;;;;;;4978871;28;20194;-55
2022/09/27 11:19:13;;;;;;;4.20;3.20;;;;;;;;;;4987636;28;20196;-55
2022/09/27 11:21:45;;;;;;;3.33;3.03;;;;;;;;;;4988900;28;20201;-55
2022/09/27 11:24:15;;;;;;;3.73;3.40;;;;;;;;;;4982096;28;20540;-55
2022/09/27 11:26:41;;;;;;;4.07;3.10;;;;;;;;;;4988293;28;20209;-57
2022/09/27 11:29:07;;;;;;;5.40;3.40;;;;;;;;;;4990829;28;20229;-55
2022/09/27 11:31:43;;;;;;;3.60;3.30;;;;;;;;;;4988725;28;20188;-56
2022/09/27 11:34:15;;;;;;;2.97;2.70;;;;;;;;;;4989466;28;20618;-56
2022/09/27 11:37:00;;;;;;;4.30;3.20;;;;;;;;;;4988894;28;20190;-54
2022/09/27 11:39:31;;;;;;;6.67;3.07;;;;;;;;;;4980088;28;21388;-56
2022/09/27 11:42:08;;;;;;;3.83;2.63;;;;;;;;;;4988068;28;20591;-55
2022/09/27 11:44:37;;;;;;;2.90;2.70;;;;;;;;;;4989728;28;20189;-56
2022/09/27 11:47:06;;;;;;;3.27;2.80;;;;;;;;;;4984511;28;20215;-55
2022/09/27 11:49:46;;;;;;;3.10;2.80;;;;;;;;;;4989676;28;20661;-55
2022/09/27 11:52:36;;;;;;;3.17;2.83;;;;;;;;;;4986285;28;20171;-56
2022/09/27 11:55:14;;;;;;;2.60;2.40;;;;;;;;;;4987722;28;20261;-55
2022/09/27 11:58:13;;;;;;;3.67;2.80;;;;;;;;;;4986894;28;20286;-54
2022/09/27 12:00:49;;;;;;;3.37;3.07;;;;;;;;;;4953877;28;20199;-55
2022/09/27 12:03:35;;;;;;;3.53;3.23;;;;;;;;;;4984941;28;20183;-55
2022/09/27 12:06:12;;;;;;;4.03;3.00;;;;;;;;;;5001383;28;20603;-54
2022/09/27 12:09:18;;;;;;;3.17;2.70;;;;;;;;;;4981480;28;20167;-57
2022/09/27 12:11:57;;;;;;;2.80;2.50;;;;;;;;;;4927821;29;20263;-55
2022/09/27 12:14:35;;;;;;;3.13;2.83;;;;;;;;;;4926592;29;20268;-54
2022/09/27 12:17:03;;;;;;;3.00;2.47;;;;;;;;;;4968112;28;20566;-55
2022/09/27 12:19:34;;;;;;;3.03;2.50;;;;;;;;;;4988048;28;20183;-54
2022/09/27 12:22:02;;;;;;;2.73;2.50;;;;;;;;;;4982662;28;20186;-54
2022/09/27 12:24:36;;;;;;;3.10;2.80;;;;;;;;;;4988704;28;20520;-55
2022/09/27 12:27:08;;;;;;;2.57;2.27;;;;;;;;;;4987587;28;20187;-54
2022/09/27 12:29:37;;;;;;;6.07;2.97;;;;;;;;;;4986125;28;20207;-55
2022/09/27 12:32:13;;;;;;;2.90;2.47;;;;;;;;;;4986419;28;20183;-55
2022/09/27 12:34:46;;;;;;;2.57;2.37;;;;;;;;;;4970142;28;20642;-55
2022/09/27 12:37:24;;;;;;;2.87;2.37;;;;;;;;;;4986276;28;20203;-54
2022/09/27 12:39:56;;;;;;;2.20;2.00;;;;;;;;;;4973873;28;20178;-55
2022/09/27 12:42:41;;;;;;;3.53;2.57;;;;;;;;;;4986750;28;20170;-55
2022/09/27 12:45:20;;;;;;;2.93;2.30;;;;;;;;;;4986205;28;20174;-55
2022/09/27 12:47:49;;;;;;;3.07;2.30;;;;;;;;;;4986350;28;20569;-54
2022/09/27 12:50:26;;;;;;;3.93;2.30;;;;;;;;;;4989618;28;20163;-55
2022/09/27 12:52:55;;;;;;;2.70;2.50;;;;;;;;;;4985424;28;20593;-55
2022/09/27 12:55:22;;;;;;;2.27;2.07;;;;;;;;;;4969332;28;20206;-54
2022/09/27 12:57:52;;;;;;;2.80;2.10;;;;;;;;;;4985510;28;20266;-54
2022/09/27 13:00:31;;;;;;;2.10;1.90;;;;;;;;;;4987448;28;20175;-55
2022/09/27 13:03:12;;;;;;;2.30;2.10;;;;;;;;;;4986681;28;20167;-55
2022/09/27 13:05:57;;;;;;;2.07;1.90;;;;;;;;;;4987578;28;20310;-55
2022/09/27 13:08:26;;;;;;;2.60;2.40;;;;;;;;;;4986646;28;20229;-55
2022/09/27 13:11:02;;;;;;;2.40;2.20;;;;;;;;;;4969500;28;20168;-59
2022/09/27 13:13:28;;;;;;;3.53;2.00;;;;;;;;;;4982769;28;20630;-55
2022/09/27 13:15:59;;;;;;;2.20;2.00;;;;;;;;;;4986919;28;20724;-55
2022/09/27 13:18:36;;;;;;;1.70;1.60;;;;;;;;;;4985848;28;20168;-55
2022/09/27 13:21:03;;;;;;;1.67;1.57;;;;;;;;;;4989039;28;20174;-55
2022/09/27 13:23:30;;;;;;;2.00;1.90;;;;;;;;;;4985615;28;20199;-54
2022/09/27 13:25:59;;;;;;;2.00;1.90;;;;;;;;;;4981702;28;20736;-55
2022/09/27 13:28:30;;;;;;;2.03;1.73;;;;;;;;;;4970210;28;20176;-55
2022/09/27 13:30:57;;;;;;;1.80;1.70;;;;;;;;;;5005022;28;20222;-55
2022/09/27 13:33:31;;;;;;;1.90;1.80;;;;;;;;;;4987975;28;20443;-55
2022/09/27 13:36:16;;;;;;;2.93;1.73;;;;;;;;;;4990281;28;20175;-55
2022/09/27 13:38:54;;;;;;;3.83;1.90;;;;;;;;;;4967748;28;20265;-55
2022/09/27 13:41:20;;;;;;;1.80;1.70;;;;;;;;;;4986223;28;20179;-55
2022/09/27 13:43:50;;;;;;;1.77;1.50;;;;;;;;;;4987309;28;20664;-55
2022/09/27 13:46:19;;;;;;;1.53;1.43;;;;;;;;;;4991355;28;20199;-55
2022/09/27 13:48:54;;;;;;;1.77;1.50;;;;;;;;;;4984843;28;20183;-55
2022/09/27 13:51:27;;;;;;;1.50;1.40;;;;;;;;;;4996119;28;20189;-55
2022/09/27 13:54:01;;;;;;;1.53;1.43;;;;;;;;;;5005137;28;20163;-55
2022/09/27 13:56:37;;;;;;;1.10;1.10;;;;;;;;;;4986272;28;20191;-55
2022/09/27 13:59:08;;;;;;;1.57;1.47;;;;;;;;;;4987517;28;20174;-55
2022/09/27 14:02:00;;;;;;;1.27;1.20;;;;;;;;;;4987129;28;20262;-54
2022/09/27 14:04:56;;;;;;;1.60;1.50;;;;;;;;;;4968989;28;20269;-54
2022/09/27 14:07:24;;;;;;;2.30;1.43;;;;;;;;;;4988485;28;20233;-54
2022/09/27 14:09:55;;;;;;;1.40;1.30;;;;;;;;;;4986698;28;20175;-54
2022/09/27 14:12:24;;;;;;;1.30;1.20;;;;;;;;;;4996291;28;20175;-55
2022/09/27 14:14:51;;;;;;;1.30;1.20;;;;;;;;;;4986496;28;20254;-54
2022/09/27 14:17:17;;;;;;;1.97;1.37;;;;;;;;;;4988212;28;20641;-55
2022/09/27 14:19:46;;;;;;;2.33;1.30;;;;;;;;;;4998542;28;20222;-55
2022/09/27 14:22:20;;;;;;;2.20;2.07;;;;;;;;;;4986079;28;20662;-54
2022/09/27 14:24:46;;;;;;;1.30;1.20;;;;;;;;;;4987123;28;20171;-55
2022/09/27 14:27:25;;;;;;;1.03;1.00;;;;;;;;;;5002158;28;20261;-54
2022/09/27 14:29:53;;;;;;;1.30;1.20;;;;;;;;;;4978881;28;20707;-55
2022/09/27 14:32:31;;;;;;;1.10;1.10;;;;;;;;;;4971965;28;20179;-55
2022/09/27 14:35:05;;;;;;;1.70;1.10;;;;;;;;;;4958352;28;20180;-55
2022/09/27 14:37:31;;;;;;;0.97;0.90;;;;;;;;;;4980892;28;20203;-55
2022/09/27 14:40:06;;;;;;;1.90;1.70;;;;;;;;;;4969654;28;20176;-55
2022/09/27 14:42:36;;;;;;;2.60;2.10;;;;;;;;;;4974563;28;20179;-55
2022/09/27 14:45:05;;;;;;;1.97;1.83;;;;;;;;;;4971197;28;20189;-55
2022/09/27 14:47:35;;;;;;;3.03;1.90;;;;;;;;;;4965503;28;20282;-55
2022/09/27 14:50:12;;;;;;;2.23;2.03;;;;;;;;;;4953334;28;20180;-55
2022/09/27 14:52:38;;;;;;;1.70;1.60;;;;;;;;;;4934920;29;20630;-55
2022/09/27 14:55:10;;;;;;;4.00;1.93;;;;;;;;;;4982675;28;20176;-55
2022/09/27 14:57:44;;;;;;;2.50;2.07;;;;;;;;;;4946401;28;20235;-55
2022/09/27 15:00:19;;;;;;;1.77;1.50;;;;;;;;;;4977039;28;20267;-55
2022/09/27 15:02:46;;;;;;;1.97;1.70;;;;;;;;;;4965744;28;20230;-55
2022/09/27 15:05:19;;;;;;;1.50;1.40;;;;;;;;;;4967657;28;20172;-55
2022/09/27 15:07:47;;;;;;;2.73;1.80;;;;;;;;;;4984653;28;20187;-55